Time;durP1;ratioP1;P1;durP2;ratioP2;P2;SDS_P1;SDS_P2;PMS_P1;PMS_P2;Temp;Humidity;BMP_temperature;BMP_pressure;BME280_temperature;BME280_humidity;BME280_pressure;Samples;Min_cycle;Max_cycle;Signal;HPM_P1;HPM_P2
2021/12/09 00:00:17;;;;;;;;;;;;;;;;;;2098353;28;19974;-43
2021/12/09 00:01:22;;;;;;;;;;;;;;;;;;2098412;28;19987;-44
2021/12/09 00:02:24;;;;;;;;;;;;;;;;;;2099323;28;20444;-44
2021/12/09 00:03:27;;;;;;;;;;;;;;;;;;2098401;28;19997;-42
2021/12/09 00:04:31;;;;;;;;;;;;;;;;;;2098362;28;19995;-44
2021/12/09 00:05:31;;;;;;;;;;;;;;;;;;2098326;28;20019;-43
2021/12/09 00:06:34;;;;;;;;;;;;;;;;;;2098636;28;19925;-43
2021/12/09 00:07:34;;;;;;;;;;;;;;;;;;2097785;28;19932;-43
2021/12/09 00:08:37;;;;;;;;;;;;;;;;;;2098580;28;19929;-43
2021/12/09 00:09:38;;;;;;;;;;;;;;;;;;2098131;28;19931;-44
2021/12/09 00:10:39;;;;;;;;;;;;;;;;;;2097778;28;20297;-44
2021/12/09 00:11:43;;;;;;;;;;;;;;;;;;2098765;28;20329;-44
2021/12/09 00:12:44;;;;;;;;;;;;;;;;;;2098248;28;19963;-44
2021/12/09 00:13:45;;;;;;;;;;;;;;;;;;2097574;28;20373;-44
2021/12/09 00:14:46;;;;;;;;;;;;;;;;;;2102161;28;19930;-44
2021/12/09 00:15:47;;;;;;;;;;;;;;;;;;2106818;28;19969;-44
2021/12/09 00:16:48;;;;;;;;;;;;;;;;;;2103338;28;20335;-44
2021/12/09 00:17:48;;;;;;;;;;;;;;;;;;2099242;28;19924;-44
2021/12/09 00:18:49;;;;;;;;;;;;;;;;;;2098356;28;19925;-44
2021/12/09 00:19:50;;;;;;;;;;;;;;;;;;2097517;28;19925;-44
2021/12/09 00:20:51;;;;;;;;;;;;;;;;;;2099890;28;20001;-44
2021/12/09 00:21:51;;;;;;;;;;;;;;;;;;2098374;28;19932;-44
2021/12/09 00:22:52;;;;;;;;;;;;;;;;;;2098526;28;19925;-43
2021/12/09 00:23:53;;;;;;;;;;;;;;;;;;2103946;28;20277;-42
2021/12/09 00:24:54;;;;;;;;;;;;;;;;;;2106745;28;20361;-44
2021/12/09 00:25:55;;;;;;;;;;;;;;;;;;2100831;28;19925;-45
2021/12/09 00:26:56;;;;;;;;;;;;;;;;;;2098776;28;19928;-44
2021/12/09 00:27:56;;;;;;;;;;;;;;;;;;2098112;28;19924;-44
2021/12/09 00:28:57;;;;;;;;;;;;;;;;;;2097562;28;20398;-44
2021/12/09 00:29:58;;;;;;;;;;;;;;;;;;2098268;28;19925;-42
2021/12/09 00:30:59;;;;;;;;;;;;;;;;;;2098238;28;20288;-44
2021/12/09 00:32:00;;;;;;;;;;;;;;;;;;2099303;28;20525;-43
2021/12/09 00:33:00;;;;;;;;;;;;;;;;;;2098108;28;20328;-44
2021/12/09 00:34:01;;;;;;;;;;;;;;;;;;2098240;28;19931;-43
2021/12/09 00:35:03;;;;;;;;;;;;;;;;;;2096918;28;19971;-43
2021/12/09 00:36:04;;;;;;;;;;;;;;;;;;2106730;28;20003;-44
2021/12/09 00:37:17;;;;;;;;;;;;;;;;;;2106513;28;20325;-43
2021/12/09 00:38:22;;;;;;;;;;;;;;;;;;2099568;28;20468;-43
2021/12/09 00:39:22;;;;;;;;;;;;;;;;;;2106470;28;20376;-43
2021/12/09 00:40:23;;;;;;;;;;;;;;;;;;2102418;28;19924;-44
2021/12/09 00:41:24;;;;;;;;;;;;;;;;;;2099861;28;20273;-43
2021/12/09 00:42:25;;;;;;;;;;;;;;;;;;2098071;28;19924;-44
2021/12/09 00:43:26;;;;;;;;;;;;;;;;;;2097297;28;20618;-44
2021/12/09 00:44:27;;;;;;;;;;;;;;;;;;2098752;28;19932;-44
2021/12/09 00:45:27;;;;;;;;;;;;;;;;;;2098175;28;19925;-44
2021/12/09 00:46:28;;;;;;;;;;;;;;;;;;2097243;28;19967;-43
2021/12/09 00:47:30;;;;;;;;;;;;;;;;;;2105012;28;19931;-44
2021/12/09 00:48:31;;;;;;;;;;;;;;;;;;2106564;28;19985;-43
2021/12/09 00:49:32;;;;;;;;;;;;;;;;;;2100101;28;19940;-42
2021/12/09 00:50:33;;;;;;;;;;;;;;;;;;2098115;28;19994;-43
2021/12/09 00:51:33;;;;;;;;;;;;;;;;;;2098093;28;19932;-44
2021/12/09 00:52:34;;;;;;;;;;;;;;;;;;2097769;28;19924;-44
2021/12/09 00:53:35;;;;;;;;;;;;;;;;;;2098052;28;19929;-44
2021/12/09 00:54:36;;;;;;;;;;;;;;;;;;2098102;28;20220;-44
2021/12/09 00:55:37;;;;;;;;;;;;;;;;;;2097933;28;19924;-44
2021/12/09 00:56:38;;;;;;;;;;;;;;;;;;2098110;28;19978;-43
2021/12/09 00:57:38;;;;;;;;;;;;;;;;;;2098057;28;20321;-45
2021/12/09 00:58:39;;;;;;;;;;;;;;;;;;2098012;28;20387;-44
2021/12/09 00:59:40;;;;;;;;;;;;;;;;;;2106364;28;20356;-43
2021/12/09 01:00:41;;;;;;;;;;;;;;;;;;2105488;28;19966;-42
2021/12/09 01:01:42;;;;;;;;;;;;;;;;;;2098613;28;19925;-42
2021/12/09 01:02:43;;;;;;;;;;;;;;;;;;2097915;28;19947;-42
2021/12/09 01:03:44;;;;;;;;;;;;;;;;;;2097233;28;20370;-42
2021/12/09 01:04:45;;;;;;;;;;;;;;;;;;2098705;28;20316;-44
2021/12/09 01:05:46;;;;;;;;;;;;;;;;;;2098017;28;20289;-43
2021/12/09 01:07:05;;;;;;;;;;;;;;;;;;2098705;28;19950;-44
2021/12/09 01:08:07;;;;;;;;;;;;;;;;;;2106314;28;20301;-44
2021/12/09 01:09:07;;;;;;;;;;;;;;;;;;2104913;28;19935;-44
2021/12/09 01:10:08;;;;;;;;;;;;;;;;;;2100762;28;20446;-43
2021/12/09 01:11:09;;;;;;;;;;;;;;;;;;2106321;28;19953;-43
2021/12/09 01:12:10;;;;;;;;;;;;;;;;;;2104069;28;19924;-43
2021/12/09 01:13:11;;;;;;;;;;;;;;;;;;2098539;28;20366;-44
2021/12/09 01:14:12;;;;;;;;;;;;;;;;;;2098044;28;20011;-44
2021/12/09 01:15:13;;;;;;;;;;;;;;;;;;2097501;28;19931;-41
2021/12/09 01:16:14;;;;;;;;;;;;;;;;;;2099365;28;19925;-43
2021/12/09 01:17:14;;;;;;;;;;;;;;;;;;2097949;28;19924;-44
2021/12/09 01:18:15;;;;;;;;;;;;;;;;;;2097427;28;19939;-44
2021/12/09 01:19:16;;;;;;;;;;;;;;;;;;2099340;28;19928;-43
2021/12/09 01:20:17;;;;;;;;;;;;;;;;;;2097911;28;19932;-43
2021/12/09 01:21:18;;;;;;;;;;;;;;;;;;2096587;28;19931;-43
2021/12/09 01:22:19;;;;;;;;;;;;;;;;;;2098569;28;19932;-44
2021/12/09 01:23:19;;;;;;;;;;;;;;;;;;2097881;28;19925;-43
2021/12/09 01:24:20;;;;;;;;;;;;;;;;;;2098595;28;19936;-42
2021/12/09 01:25:21;;;;;;;;;;;;;;;;;;2098034;28;20385;-43
2021/12/09 01:26:23;;;;;;;;;;;;;;;;;;2097903;28;19925;-44
2021/12/09 01:27:24;;;;;;;;;;;;;;;;;;2096848;28;19931;-44
2021/12/09 01:28:28;;;;;;;;;;;;;;;;;;2098536;28;20391;-44
2021/12/09 01:29:34;;;;;;;;;;;;;;;;;;2096306;28;20393;-44
2021/12/09 01:30:35;;;;;;;;;;;;;;;;;;2097960;28;20015;-41
2021/12/09 01:31:38;;;;;;;;;;;;;;;;;;2097913;28;20053;-44
2021/12/09 01:32:42;;;;;;;;;;;;;;;;;;2097862;28;20023;-44
2021/12/09 01:33:43;;;;;;;;;;;;;;;;;;2097894;28;19925;-44
2021/12/09 01:34:44;;;;;;;;;;;;;;;;;;2106272;28;20055;-42
2021/12/09 01:35:48;;;;;;;;;;;;;;;;;;2105327;28;19928;-43
2021/12/09 01:36:50;;;;;;;;;;;;;;;;;;2099140;28;20011;-43
2021/12/09 01:37:54;;;;;;;;;;;;;;;;;;2097709;28;20402;-44
2021/12/09 01:38:55;;;;;;;;;;;;;;;;;;2097216;28;20365;-43
2021/12/09 01:39:56;;;;;;;;;;;;;;;;;;2098271;28;19974;-43
2021/12/09 01:40:57;;;;;;;;;;;;;;;;;;2097866;28;19931;-43
2021/12/09 01:41:57;;;;;;;;;;;;;;;;;;2096821;28;19985;-43
2021/12/09 01:42:58;;;;;;;;;;;;;;;;;;2098479;28;19924;-43
2021/12/09 01:43:59;;;;;;;;;;;;;;;;;;2097964;28;19933;-43
2021/12/09 01:45:00;;;;;;;;;;;;;;;;;;2096850;28;20289;-43
2021/12/09 01:46:01;;;;;;;;;;;;;;;;;;2098635;28;20136;-43
2021/12/09 01:47:01;;;;;;;;;;;;;;;;;;2097843;28;20327;-43
2021/12/09 01:48:03;;;;;;;;;;;;;;;;;;2096755;28;19924;-43
2021/12/09 01:49:03;;;;;;;;;;;;;;;;;;2102884;28;19924;-44
2021/12/09 01:50:04;;;;;;;;;;;;;;;;;;2106199;28;19931;-44
2021/12/09 01:51:05;;;;;;;;;;;;;;;;;;2101573;28;19931;-43
2021/12/09 01:52:06;;;;;;;;;;;;;;;;;;2098548;28;19936;-43
2021/12/09 01:53:07;;;;;;;;;;;;;;;;;;2097917;28;19993;-43
2021/12/09 01:54:08;;;;;;;;;;;;;;;;;;2097723;28;20066;-43
2021/12/09 01:55:08;;;;;;;;;;;;;;;;;;2097643;28;20448;-43
2021/12/09 01:56:09;;;;;;;;;;;;;;;;;;2097803;28;19928;-43
2021/12/09 01:57:10;;;;;;;;;;;;;;;;;;2098757;28;19973;-43
2021/12/09 01:58:11;;;;;;;;;;;;;;;;;;2096686;28;20333;-43
2021/12/09 01:59:12;;;;;;;;;;;;;;;;;;2097869;28;19939;-43
2021/12/09 02:00:13;;;;;;;;;;;;;;;;;;2097756;28;19939;-43
2021/12/09 02:01:14;;;;;;;;;;;;;;;;;;2097564;28;20469;-43
2021/12/09 02:02:15;;;;;;;;;;;;;;;;;;2097794;28;19936;-43
2021/12/09 02:03:16;;;;;;;;;;;;;;;;;;2099090;28;20235;-43
2021/12/09 02:04:17;;;;;;;;;;;;;;;;;;2106203;28;19928;-43
2021/12/09 02:05:17;;;;;;;;;;;;;;;;;;2103817;28;19925;-43
2021/12/09 02:06:18;;;;;;;;;;;;;;;;;;2100209;28;19931;-43
2021/12/09 02:07:19;;;;;;;;;;;;;;;;;;2106063;28;19924;-43
2021/12/09 02:08:20;;;;;;;;;;;;;;;;;;2103090;28;19924;-43
2021/12/09 02:09:21;;;;;;;;;;;;;;;;;;2098093;28;20365;-43
2021/12/09 02:10:21;;;;;;;;;;;;;;;;;;2097890;28;19924;-43
2021/12/09 02:11:24;;;;;;;;;;;;;;;;;;2096732;28;19955;-43
2021/12/09 02:12:25;;;;;;;;;;;;;;;;;;2098263;28;19967;-42
2021/12/09 02:13:26;;;;;;;;;;;;;;;;;;2097807;28;20446;-43
2021/12/09 02:14:27;;;;;;;;;;;;;;;;;;2096705;28;19967;-43
2021/12/09 02:15:27;;;;;;;;;;;;;;;;;;2098390;28;19947;-43
2021/12/09 02:16:28;;;;;;;;;;;;;;;;;;2097800;28;19931;-43
2021/12/09 02:17:29;;;;;;;;;;;;;;;;;;2096691;28;19925;-43
2021/12/09 02:18:30;;;;;;;;;;;;;;;;;;2098481;28;20347;-43
2021/12/09 02:19:31;;;;;;;;;;;;;;;;;;2097874;28;19931;-43
2021/12/09 02:20:34;;;;;;;;;;;;;;;;;;2096631;28;20015;-43
2021/12/09 02:21:35;;;;;;;;;;;;;;;;;;2103658;28;20058;-43
2021/12/09 02:22:35;;;;;;;;;;;;;;;;;;2106098;28;19932;-43
2021/12/09 02:23:36;;;;;;;;;;;;;;;;;;2099945;28;19970;-43
2021/12/09 02:24:37;;;;;;;;;;;;;;;;;;2096654;28;19924;-44
2021/12/09 02:25:38;;;;;;;;;;;;;;;;;;2097658;28;20034;-43
2021/12/09 02:26:39;;;;;;;;;;;;;;;;;;2097548;28;20388;-43
2021/12/09 02:27:40;;;;;;;;;;;;;;;;;;2097345;28;19925;-44
2021/12/09 02:28:41;;;;;;;;;;;;;;;;;;2097688;28;20013;-43
2021/12/09 02:29:41;;;;;;;;;;;;;;;;;;2097342;28;19924;-43
2021/12/09 02:30:42;;;;;;;;;;;;;;;;;;2097588;28;19973;-43
2021/12/09 02:31:43;;;;;;;;;;;;;;;;;;2097743;28;19924;-43
2021/12/09 02:32:44;;;;;;;;;;;;;;;;;;2099038;28;20631;-43
2021/12/09 02:33:45;;;;;;;;;;;;;;;;;;2099120;28;19930;-43
2021/12/09 02:34:46;;;;;;;;;;;;;;;;;;2098970;28;20312;-43
2021/12/09 02:35:46;;;;;;;;;;;;;;;;;;2099275;28;19924;-44
2021/12/09 02:36:47;;;;;;;;;;;;;;;;;;2099017;28;19925;-43
2021/12/09 02:37:49;;;;;;;;;;;;;;;;;;2098551;28;19928;-43
2021/12/09 02:38:50;;;;;;;;;;;;;;;;;;2099204;28;19999;-43
2021/12/09 02:39:51;;;;;;;;;;;;;;;;;;2099063;28;19924;-43
2021/12/09 02:40:52;;;;;;;;;;;;;;;;;;2098618;28;19924;-43
2021/12/09 02:41:53;;;;;;;;;;;;;;;;;;2098193;28;19933;-43
2021/12/09 02:42:53;;;;;;;;;;;;;;;;;;2098887;28;19925;-44
2021/12/09 02:43:54;;;;;;;;;;;;;;;;;;2098346;28;19924;-43
2021/12/09 02:44:57;;;;;;;;;;;;;;;;;;2100397;28;20420;-43
2021/12/09 02:46:00;;;;;;;;;;;;;;;;;;2098892;28;20023;-43
2021/12/09 02:47:01;;;;;;;;;;;;;;;;;;2098139;28;19924;-42
2021/12/09 02:48:01;;;;;;;;;;;;;;;;;;2099532;28;19978;-44
2021/12/09 02:49:02;;;;;;;;;;;;;;;;;;2098954;28;19924;-44
2021/12/09 02:50:03;;;;;;;;;;;;;;;;;;2097871;28;20339;-43
2021/12/09 02:51:04;;;;;;;;;;;;;;;;;;2103869;28;19928;-43
2021/12/09 02:52:05;;;;;;;;;;;;;;;;;;2107231;28;19923;-44
2021/12/09 02:53:06;;;;;;;;;;;;;;;;;;2101867;28;20411;-44
2021/12/09 02:54:07;;;;;;;;;;;;;;;;;;2099574;28;19935;-42
2021/12/09 02:55:08;;;;;;;;;;;;;;;;;;2098841;28;19934;-43
2021/12/09 02:56:08;;;;;;;;;;;;;;;;;;2098173;28;19929;-43
2021/12/09 02:57:09;;;;;;;;;;;;;;;;;;2099186;28;19929;-43
2021/12/09 02:58:10;;;;;;;;;;;;;;;;;;2098861;28;19931;-43
2021/12/09 02:59:11;;;;;;;;;;;;;;;;;;2097777;28;19944;-43
2021/12/09 03:00:11;;;;;;;;;;;;;;;;;;2105764;28;19935;-43
2021/12/09 03:01:14;;;;;;;;;;;;;;;;;;2107139;28;20400;-43
2021/12/09 03:02:15;;;;;;;;;;;;;;;;;;2100675;28;19956;-43
2021/12/09 03:03:16;;;;;;;;;;;;;;;;;;2099048;28;19975;-59
2021/12/09 03:04:17;;;;;;;;;;;;;;;;;;2098819;28;20335;-60
2021/12/09 03:05:18;;;;;;;;;;;;;;;;;;2097686;28;19924;-60
2021/12/09 03:06:19;;;;;;;;;;;;;;;;;;2107107;28;20038;-60
2021/12/09 03:07:23;;;;;;;;;;;;;;;;;;2107195;28;19924;-60
2021/12/09 03:08:34;;;;;;;;;;;;;;;;;;2099764;28;20011;-61
2021/12/09 03:09:35;;;;;;;;;;;;;;;;;;2098952;28;19925;-61
2021/12/09 03:10:36;;;;;;;;;;;;;;;;;;2098097;28;19964;-61
2021/12/09 03:11:37;;;;;;;;;;;;;;;;;;2099127;28;20367;-61
2021/12/09 03:12:40;;;;;;;;;;;;;;;;;;2098800;28;19932;-61
2021/12/09 03:13:41;;;;;;;;;;;;;;;;;;2098002;28;20272;-61
2021/12/09 03:14:41;;;;;;;;;;;;;;;;;;2102606;28;20262;-61
2021/12/09 03:15:42;;;;;;;;;;;;;;;;;;2107096;28;19924;-60
2021/12/09 03:16:43;;;;;;;;;;;;;;;;;;2103814;28;19931;-59
2021/12/09 03:17:44;;;;;;;;;;;;;;;;;;2099332;28;19925;-59
2021/12/09 03:18:45;;;;;;;;;;;;;;;;;;2098942;28;20067;-60
2021/12/09 03:19:45;;;;;;;;;;;;;;;;;;2097631;28;20346;-60
2021/12/09 03:20:46;;;;;;;;;;;;;;;;;;2099590;28;19924;-60
2021/12/09 03:21:47;;;;;;;;;;;;;;;;;;2098765;28;19925;-60
2021/12/09 03:22:48;;;;;;;;;;;;;;;;;;2098962;28;20014;-60
2021/12/09 03:23:49;;;;;;;;;;;;;;;;;;2098415;28;19979;-59
2021/12/09 03:24:50;;;;;;;;;;;;;;;;;;2098791;28;19979;-59
2021/12/09 03:25:50;;;;;;;;;;;;;;;;;;2098282;28;19967;-59
2021/12/09 03:26:51;;;;;;;;;;;;;;;;;;2098935;28;20289;-59
2021/12/09 03:27:52;;;;;;;;;;;;;;;;;;2098676;28;20011;-59
2021/12/09 03:28:53;;;;;;;;;;;;;;;;;;2096795;28;19964;-59
2021/12/09 03:29:54;;;;;;;;;;;;;;;;;;2098482;28;19925;-58
2021/12/09 03:30:55;;;;;;;;;;;;;;;;;;2098664;28;19924;-58
2021/12/09 03:31:55;;;;;;;;;;;;;;;;;;2097389;28;20347;-58
2021/12/09 03:32:56;;;;;;;;;;;;;;;;;;2106397;28;19928;-58
2021/12/09 03:33:57;;;;;;;;;;;;;;;;;;2107012;28;19931;-58
2021/12/09 03:34:58;;;;;;;;;;;;;;;;;;2099652;28;19932;-58
2021/12/09 03:35:59;;;;;;;;;;;;;;;;;;2098593;28;20373;-58
2021/12/09 03:37:00;;;;;;;;;;;;;;;;;;2098611;28;19928;-58
2021/12/09 03:38:01;;;;;;;;;;;;;;;;;;2097983;28;19924;-58
2021/12/09 03:39:01;;;;;;;;;;;;;;;;;;2107112;28;19962;-58
2021/12/09 03:40:02;;;;;;;;;;;;;;;;;;2106921;28;19928;-58
2021/12/09 03:41:03;;;;;;;;;;;;;;;;;;2097629;28;19950;-58
2021/12/09 03:42:04;;;;;;;;;;;;;;;;;;2098481;28;20388;-58
2021/12/09 03:43:05;;;;;;;;;;;;;;;;;;2098187;28;20128;-58
2021/12/09 03:44:05;;;;;;;;;;;;;;;;;;2098261;28;19935;-59
2021/12/09 03:45:06;;;;;;;;;;;;;;;;;;2098520;28;19929;-59
2021/12/09 03:46:07;;;;;;;;;;;;;;;;;;2098099;28;19929;-58
2021/12/09 03:47:08;;;;;;;;;;;;;;;;;;2098838;28;19928;-59
2021/12/09 03:48:09;;;;;;;;;;;;;;;;;;2098600;28;20279;-58
2021/12/09 03:49:10;;;;;;;;;;;;;;;;;;2097859;28;20372;-58
2021/12/09 03:50:10;;;;;;;;;;;;;;;;;;2099042;28;19967;-58
2021/12/09 03:51:11;;;;;;;;;;;;;;;;;;2098429;28;20407;-58
2021/12/09 03:52:12;;;;;;;;;;;;;;;;;;2097974;28;19924;-58
2021/12/09 03:53:13;;;;;;;;;;;;;;;;;;2100897;28;20398;-58
2021/12/09 03:54:14;;;;;;;;;;;;;;;;;;2106769;28;19928;-58
2021/12/09 03:55:15;;;;;;;;;;;;;;;;;;2102966;28;19924;-58
2021/12/09 03:56:15;;;;;;;;;;;;;;;;;;2102759;28;20277;-58
2021/12/09 03:57:16;;;;;;;;;;;;;;;;;;2106753;28;20303;-58
2021/12/09 03:58:17;;;;;;;;;;;;;;;;;;2102072;28;19928;-58
2021/12/09 03:59:18;;;;;;;;;;;;;;;;;;2099642;28;19925;-58
2021/12/09 04:00:19;;;;;;;;;;;;;;;;;;2098406;28;20300;-58
2021/12/09 04:01:20;;;;;;;;;;;;;;;;;;2097518;28;20016;-58
2021/12/09 04:02:21;;;;;;;;;;;;;;;;;;2099140;28;20297;-58
2021/12/09 04:03:21;;;;;;;;;;;;;;;;;;2098395;28;20377;-58
2021/12/09 04:04:22;;;;;;;;;;;;;;;;;;2097592;28;19932;-56
2021/12/09 04:05:23;;;;;;;;;;;;;;;;;;2099093;28;20442;-58
2021/12/09 04:06:24;;;;;;;;;;;;;;;;;;2098294;28;20332;-58
2021/12/09 04:07:25;;;;;;;;;;;;;;;;;;2099194;28;19928;-58
2021/12/09 04:08:26;;;;;;;;;;;;;;;;;;2098421;28;19935;-58
2021/12/09 04:09:26;;;;;;;;;;;;;;;;;;2098325;28;20364;-58
2021/12/09 04:10:27;;;;;;;;;;;;;;;;;;2098445;28;19924;-59
2021/12/09 04:11:28;;;;;;;;;;;;;;;;;;2098223;28;19930;-58
2021/12/09 04:12:33;;;;;;;;;;;;;;;;;;2098304;28;20400;-58
2021/12/09 04:13:34;;;;;;;;;;;;;;;;;;2098173;28;19998;-58
2021/12/09 04:14:35;;;;;;;;;;;;;;;;;;2098410;28;20320;-58
2021/12/09 04:15:36;;;;;;;;;;;;;;;;;;2098365;28;19928;-58
2021/12/09 04:16:37;;;;;;;;;;;;;;;;;;2098242;28;19931;-58
2021/12/09 04:17:37;;;;;;;;;;;;;;;;;;2098334;28;19924;-57
2021/12/09 04:18:38;;;;;;;;;;;;;;;;;;2097842;28;19924;-58
2021/12/09 04:19:47;;;;;;;;;;;;;;;;;;2099718;28;19978;-58
2021/12/09 04:20:49;;;;;;;;;;;;;;;;;;2098282;28;20385;-58
2021/12/09 04:21:50;;;;;;;;;;;;;;;;;;2097793;28;20011;-58
2021/12/09 04:22:51;;;;;;;;;;;;;;;;;;2098643;28;19971;-58
2021/12/09 04:23:51;;;;;;;;;;;;;;;;;;2098279;28;20293;-58
2021/12/09 04:24:52;;;;;;;;;;;;;;;;;;2097633;28;19931;-58
2021/12/09 04:25:53;;;;;;;;;;;;;;;;;;2099566;28;20270;-58
2021/12/09 04:26:54;;;;;;;;;;;;;;;;;;2098308;28;20286;-58
2021/12/09 04:27:55;;;;;;;;;;;;;;;;;;2097374;28;19925;-58
2021/12/09 04:28:56;;;;;;;;;;;;;;;;;;2099203;28;19928;-58
2021/12/09 04:29:56;;;;;;;;;;;;;;;;;;2098264;28;19929;-58
2021/12/09 04:30:57;;;;;;;;;;;;;;;;;;2098513;28;19924;-58
2021/12/09 04:31:58;;;;;;;;;;;;;;;;;;2105726;28;19924;-58
2021/12/09 04:32:59;;;;;;;;;;;;;;;;;;2106666;28;19928;-58
2021/12/09 04:34:00;;;;;;;;;;;;;;;;;;2099752;28;20254;-58
2021/12/09 04:35:01;;;;;;;;;;;;;;;;;;2098311;28;19924;-58
2021/12/09 04:36:01;;;;;;;;;;;;;;;;;;2098218;28;19924;-57
2021/12/09 04:37:02;;;;;;;;;;;;;;;;;;2098041;28;19928;-57
2021/12/09 04:38:03;;;;;;;;;;;;;;;;;;2098343;28;19970;-58
2021/12/09 04:39:04;;;;;;;;;;;;;;;;;;2098268;28;19925;-58
2021/12/09 04:40:05;;;;;;;;;;;;;;;;;;2098002;28;19930;-58
2021/12/09 04:41:06;;;;;;;;;;;;;;;;;;2098181;28;19928;-58
2021/12/09 04:42:07;;;;;;;;;;;;;;;;;;2097533;28;19924;-58
2021/12/09 04:43:07;;;;;;;;;;;;;;;;;;2098393;28;20385;-57
2021/12/09 04:44:08;;;;;;;;;;;;;;;;;;2098274;28;19928;-58
2021/12/09 04:45:09;;;;;;;;;;;;;;;;;;2097601;28;19928;-58
2021/12/09 04:46:10;;;;;;;;;;;;;;;;;;2098471;28;20143;-57
2021/12/09 04:47:10;;;;;;;;;;;;;;;;;;2098136;28;20426;-58
2021/12/09 04:48:11;;;;;;;;;;;;;;;;;;2097445;28;19936;-58
2021/12/09 04:49:12;;;;;;;;;;;;;;;;;;2098506;28;19925;-58
2021/12/09 04:50:13;;;;;;;;;;;;;;;;;;2098243;28;19924;-58
2021/12/09 04:51:14;;;;;;;;;;;;;;;;;;2097566;28;20331;-58
2021/12/09 04:52:15;;;;;;;;;;;;;;;;;;2098394;28;19932;-58
2021/12/09 04:53:16;;;;;;;;;;;;;;;;;;2098154;28;19928;-58
2021/12/09 04:54:16;;;;;;;;;;;;;;;;;;2097373;28;19929;-57
2021/12/09 04:55:17;;;;;;;;;;;;;;;;;;2102424;28;19924;-57
2021/12/09 04:56:18;;;;;;;;;;;;;;;;;;2105639;28;20014;-57
2021/12/09 04:57:19;;;;;;;;;;;;;;;;;;2102921;28;20280;-57
2021/12/09 04:58:20;;;;;;;;;;;;;;;;;;2098840;28;19932;-58
2021/12/09 04:59:21;;;;;;;;;;;;;;;;;;2098243;28;19924;-57
2021/12/09 05:00:21;;;;;;;;;;;;;;;;;;2097455;28;19924;-58
2021/12/09 05:01:22;;;;;;;;;;;;;;;;;;2098427;28;19924;-57
2021/12/09 05:02:30;;;;;;;;;;;;;;;;;;2098000;28;20388;-57
2021/12/09 05:03:31;;;;;;;;;;;;;;;;;;2097786;28;20007;-57
2021/12/09 05:04:32;;;;;;;;;;;;;;;;;;2098068;28;19925;-57
2021/12/09 05:05:35;;;;;;;;;;;;;;;;;;2098271;28;19931;-57
2021/12/09 05:06:36;;;;;;;;;;;;;;;;;;2098111;28;20091;-57
2021/12/09 05:07:36;;;;;;;;;;;;;;;;;;2097822;28;19933;-58
2021/12/09 05:08:40;;;;;;;;;;;;;;;;;;2097922;28;19925;-57
2021/12/09 05:09:49;;;;;;;;;;;;;;;;;;2097830;28;19940;-57
2021/12/09 05:10:55;;;;;;;;;;;;;;;;;;2098191;28;20017;-58
2021/12/09 05:11:56;;;;;;;;;;;;;;;;;;2097229;28;20026;-57
2021/12/09 05:12:57;;;;;;;;;;;;;;;;;;2098443;28;19924;-57
2021/12/09 05:13:58;;;;;;;;;;;;;;;;;;2097943;28;19924;-57
2021/12/09 05:14:59;;;;;;;;;;;;;;;;;;2097353;28;20364;-57
2021/12/09 05:16:00;;;;;;;;;;;;;;;;;;2099406;28;20345;-57
2021/12/09 05:17:03;;;;;;;;;;;;;;;;;;2097879;28;19931;-57
2021/12/09 05:18:04;;;;;;;;;;;;;;;;;;2097128;28;20011;-57
2021/12/09 05:19:05;;;;;;;;;;;;;;;;;;2098635;28;19951;-57
2021/12/09 05:20:06;;;;;;;;;;;;;;;;;;2097964;28;19933;-57
2021/12/09 05:21:06;;;;;;;;;;;;;;;;;;2096810;28;19934;-57
2021/12/09 05:22:07;;;;;;;;;;;;;;;;;;2097505;28;19935;-57
2021/12/09 05:23:08;;;;;;;;;;;;;;;;;;2098019;28;19928;-57
2021/12/09 05:24:10;;;;;;;;;;;;;;;;;;2096824;28;19929;-57
2021/12/09 05:25:11;;;;;;;;;;;;;;;;;;2103579;28;20335;-57
2021/12/09 05:26:11;;;;;;;;;;;;;;;;;;2106512;28;19950;-57
2021/12/09 05:27:20;;;;;;;;;;;;;;;;;;2098777;28;19924;-57
2021/12/09 05:28:29;;;;;;;;;;;;;;;;;;2105461;28;20489;-57
2021/12/09 05:29:36;;;;;;;;;;;;;;;;;;2098119;28;20015;-57
2021/12/09 05:30:40;;;;;;;;;;;;;;;;;;2097528;28;20016;-57
2021/12/09 05:33:00;;;;;;;;;;;;;;;;;;2096952;28;20058;-57
2021/12/09 05:34:01;;;;;;;;;;;;;;;;;;2103175;28;19928;-57
2021/12/09 05:35:02;;;;;;;;;;;;;;;;;;2106174;28;19924;-57
2021/12/09 05:36:03;;;;;;;;;;;;;;;;;;2100433;28;20133;-57
2021/12/09 05:37:04;;;;;;;;;;;;;;;;;;2103997;28;20290;-57
2021/12/09 05:38:05;;;;;;;;;;;;;;;;;;2106270;28;19924;-57
2021/12/09 05:39:06;;;;;;;;;;;;;;;;;;2100404;28;19939;-57
2021/12/09 05:40:06;;;;;;;;;;;;;;;;;;2098129;28;20370;-57
2021/12/09 05:41:07;;;;;;;;;;;;;;;;;;2097847;28;19928;-57
2021/12/09 05:42:08;;;;;;;;;;;;;;;;;;2096703;28;20285;-57
2021/12/09 05:43:09;;;;;;;;;;;;;;;;;;2098537;28;20323;-57
2021/12/09 05:44:10;;;;;;;;;;;;;;;;;;2097935;28;19982;-56
2021/12/09 05:45:10;;;;;;;;;;;;;;;;;;2097783;28;20262;-58
2021/12/09 05:46:11;;;;;;;;;;;;;;;;;;2097621;28;19933;-58
2021/12/09 05:47:12;;;;;;;;;;;;;;;;;;2097933;28;20419;-58
2021/12/09 05:48:13;;;;;;;;;;;;;;;;;;2096664;28;19935;-57
2021/12/09 05:49:14;;;;;;;;;;;;;;;;;;2106154;28;20387;-57
2021/12/09 05:50:15;;;;;;;;;;;;;;;;;;2106162;28;20018;-57
2021/12/09 05:51:16;;;;;;;;;;;;;;;;;;2097879;28;19928;-57
2021/12/09 05:52:17;;;;;;;;;;;;;;;;;;2097663;28;19929;-57
2021/12/09 05:53:18;;;;;;;;;;;;;;;;;;2097170;28;19925;-57
2021/12/09 05:54:18;;;;;;;;;;;;;;;;;;2099223;28;19924;-44
2021/12/09 05:55:19;;;;;;;;;;;;;;;;;;2097940;28;19924;-44
2021/12/09 05:56:20;;;;;;;;;;;;;;;;;;2097347;28;19924;-44
2021/12/09 05:57:21;;;;;;;;;;;;;;;;;;2097914;28;20288;-44
2021/12/09 05:58:22;;;;;;;;;;;;;;;;;;2097776;28;19925;-43
2021/12/09 05:59:23;;;;;;;;;;;;;;;;;;2097244;28;19925;-44
2021/12/09 06:00:23;;;;;;;;;;;;;;;;;;2097248;28;19932;-43
2021/12/09 06:01:24;;;;;;;;;;;;;;;;;;2097742;28;19947;-44
2021/12/09 06:02:26;;;;;;;;;;;;;;;;;;2097085;28;19950;-43
2021/12/09 06:03:27;;;;;;;;;;;;;;;;;;2098209;28;19925;-43
2021/12/09 06:04:28;;;;;;;;;;;;;;;;;;2097715;28;19931;-44
2021/12/09 06:05:29;;;;;;;;;;;;;;;;;;2096819;28;20769;-44
2021/12/09 06:06:30;;;;;;;;;;;;;;;;;;2098393;28;19949;-44
2021/12/09 06:07:30;;;;;;;;;;;;;;;;;;2098549;28;19928;-44
2021/12/09 06:08:32;;;;;;;;;;;;;;;;;;2098203;28;19924;-44
2021/12/09 06:09:33;;;;;;;;;;;;;;;;;;2099972;28;19924;-44
2021/12/09 06:10:36;;;;;;;;;;;;;;;;;;2099235;28;19924;-44
2021/12/09 06:11:36;;;;;;;;;;;;;;;;;;2098157;28;20422;-44
2021/12/09 06:12:37;;;;;;;;;;;;;;;;;;2099930;28;19924;-44
2021/12/09 06:13:38;;;;;;;;;;;;;;;;;;2099439;28;20031;-43
2021/12/09 06:14:40;;;;;;;;;;;;;;;;;;2099034;28;19940;-44
2021/12/09 06:15:41;;;;;;;;;;;;;;;;;;2105731;28;19928;-44
2021/12/09 06:16:41;;;;;;;;;;;;;;;;;;2107509;28;19955;-44
2021/12/09 06:17:42;;;;;;;;;;;;;;;;;;2101347;28;19924;-43
2021/12/09 06:18:43;;;;;;;;;;;;;;;;;;2100026;28;19924;-44
2021/12/09 06:19:44;;;;;;;;;;;;;;;;;;2099081;28;19925;-45
2021/12/09 06:20:45;;;;;;;;;;;;;;;;;;2099052;28;19929;-43
2021/12/09 06:21:45;;;;;;;;;;;;;;;;;;2099025;28;19925;-44
2021/12/09 06:22:46;;;;;;;;;;;;;;;;;;2099156;28;20282;-43
2021/12/09 06:23:47;;;;;;;;;;;;;;;;;;2098997;28;19924;-43
2021/12/09 06:24:48;;;;;;;;;;;;;;;;;;2090926;28;19924;-42
2021/12/09 06:25:50;;;;;;;;;;;;;;;;;;2090938;28;20011;-42
2021/12/09 06:26:51;;;;;;;;;;;;;;;;;;2097850;28;19966;-42
2021/12/09 06:27:54;;;;;;;;;;;;;;;;;;2107287;28;19925;-44
2021/12/09 06:28:55;;;;;;;;;;;;;;;;;;2103357;28;20020;-44
2021/12/09 06:29:56;;;;;;;;;;;;;;;;;;2101211;28;19936;-42
2021/12/09 06:30:57;;;;;;;;;;;;;;;;;;2107387;28;19924;-44
2021/12/09 06:31:58;;;;;;;;;;;;;;;;;;2105995;28;19924;-42
2021/12/09 06:32:58;;;;;;;;;;;;;;;;;;2100570;28;19924;-42
2021/12/09 06:33:59;;;;;;;;;;;;;;;;;;2107384;28;19931;-43
2021/12/09 06:35:00;;;;;;;;;;;;;;;;;;2105245;28;19924;-42
2021/12/09 06:36:01;;;;;;;;;;;;;;;;;;2099466;28;20364;-42
2021/12/09 06:37:02;;;;;;;;;;;;;;;;;;2099125;28;19925;-44
2021/12/09 06:38:03;;;;;;;;;;;;;;;;;;2098402;28;19993;-44
2021/12/09 06:39:05;;;;;;;;;;;;;;;;;;2101932;28;19924;-43
2021/12/09 06:40:06;;;;;;;;;;;;;;;;;;2107439;28;20372;-44
2021/12/09 06:41:08;;;;;;;;;;;;;;;;;;2103518;28;19928;-44
2021/12/09 06:42:10;;;;;;;;;;;;;;;;;;2103191;28;20437;-44
2021/12/09 06:43:10;;;;;;;;;;;;;;;;;;2107300;28;20015;-43
2021/12/09 06:44:11;;;;;;;;;;;;;;;;;;2102357;28;20415;-43
2021/12/09 06:45:12;;;;;;;;;;;;;;;;;;2099763;28;20030;-44
2021/12/09 06:46:13;;;;;;;;;;;;;;;;;;2099034;28;19924;-44
2021/12/09 06:47:14;;;;;;;;;;;;;;;;;;2097910;28;20017;-44
2021/12/09 06:48:14;;;;;;;;;;;;;;;;;;2104694;28;19924;-43
2021/12/09 06:49:15;;;;;;;;;;;;;;;;;;2107226;28;19931;-44
2021/12/09 06:50:16;;;;;;;;;;;;;;;;;;2102181;28;19928;-44
2021/12/09 06:51:17;;;;;;;;;;;;;;;;;;2098708;28;19932;-44
2021/12/09 06:52:18;;;;;;;;;;;;;;;;;;2098982;28;19928;-44
2021/12/09 06:53:19;;;;;;;;;;;;;;;;;;2098910;28;20004;-44
2021/12/09 06:54:20;;;;;;;;;;;;;;;;;;2097835;28;19931;-44
2021/12/09 06:55:21;;;;;;;;;;;;;;;;;;2099124;28;19930;-43
2021/12/09 06:56:22;;;;;;;;;;;;;;;;;;2097688;28;20345;-42
2021/12/09 06:57:22;;;;;;;;;;;;;;;;;;2106556;28;19924;-44
2021/12/09 06:58:23;;;;;;;;;;;;;;;;;;2107185;28;19970;-44
2021/12/09 06:59:24;;;;;;;;;;;;;;;;;;2099893;28;19946;-42